createdAt,value
2018-08-31T00:00:02.328Z,35.37
2018-08-31T00:02:38.725Z,33.90
2018-08-31T00:05:42.081Z,29.27
2018-08-31T00:09:16.257Z,36.67
2018-08-31T00:11:50.078Z,36.70
2018-08-31T00:14:18.425Z,29.93
2018-08-31T00:16:46.686Z,31.90
2018-08-31T00:19:15.255Z,34.90
2018-08-31T00:21:43.340Z,33.80
2018-08-31T00:24:17.571Z,33.03
2018-08-31T00:26:51.223Z,37.53
2018-08-31T00:29:34.662Z,31.60
2018-08-31T00:34:13.136Z,31.00
2018-08-31T00:36:46.720Z,34.87
2018-08-31T00:39:21.141Z,35.73
2018-08-31T00:43:56.210Z,34.83
2018-08-31T00:46:25.117Z,34.80
2018-08-31T00:48:53.266Z,40.37
2018-08-31T00:51:21.265Z,41.47
2018-08-31T00:53:49.343Z,31.97
2018-08-31T00:56:17.711Z,40.80
2018-08-31T00:58:45.710Z,36.77
2018-08-31T01:01:13.720Z,47.60
2018-08-31T01:03:42.191Z,45.03
2018-08-31T01:06:11.291Z,34.97
2018-08-31T01:08:39.744Z,40.23
2018-08-31T01:11:08.156Z,36.87
2018-08-31T01:13:36.923Z,39.53
2018-08-31T01:16:05.705Z,37.30
2018-08-31T01:18:34.345Z,36.33
2018-08-31T01:21:04.335Z,40.17
2018-08-31T01:23:32.796Z,35.10
2018-08-31T01:26:01.731Z,41.33
2018-08-31T01:28:30.341Z,36.90
2018-08-31T01:30:58.777Z,35.93
2018-08-31T01:33:26.745Z,36.73
2018-08-31T01:35:55.381Z,50.07
2018-08-31T01:38:23.603Z,45.40
2018-08-31T01:40:54.298Z,41.23
2018-08-31T01:43:22.330Z,41.63
2018-08-31T01:45:50.428Z,42.83
2018-08-31T01:48:18.533Z,40.03
2018-08-31T01:50:52.150Z,37.03
2018-08-31T01:53:20.138Z,39.33
2018-08-31T01:55:48.205Z,40.10
2018-08-31T01:58:16.271Z,31.87
2018-08-31T02:03:43.072Z,30.93
2018-08-31T02:06:11.235Z,28.20
2018-08-31T02:09:43.020Z,33.30
2018-08-31T02:12:11.074Z,28.93
2018-08-31T02:14:39.620Z,31.43
2018-08-31T02:17:08.563Z,36.90
2018-08-31T02:19:36.788Z,36.30
2018-08-31T02:22:04.973Z,36.70
2018-08-31T02:24:33.382Z,39.50
2018-08-31T02:27:01.744Z,38.10
2018-08-31T02:29:30.228Z,37.10
2018-08-31T02:31:58.692Z,43.60
2018-08-31T02:34:27.004Z,39.73
2018-08-31T02:36:55.059Z,40.07
2018-08-31T02:39:23.313Z,39.90
2018-08-31T02:41:51.374Z,50.30
2018-08-31T02:44:19.544Z,40.23
2018-08-31T02:46:47.529Z,35.43
2018-08-31T02:49:16.278Z,42.07
2018-08-31T02:51:44.268Z,44.67
2018-08-31T02:54:12.625Z,40.33
2018-08-31T02:56:40.954Z,36.93
2018-08-31T02:59:09.329Z,39.03
2018-08-31T03:01:37.798Z,39.93
2018-08-31T03:04:06.201Z,41.50
2018-08-31T03:06:34.431Z,43.37
2018-08-31T03:09:02.967Z,33.50
2018-08-31T03:11:32.130Z,39.10
2018-08-31T03:14:01.257Z,34.80
2018-08-31T03:16:30.235Z,36.20
2018-08-31T03:18:58.548Z,33.07
2018-08-31T03:21:27.044Z,32.30
2018-08-31T03:23:55.273Z,37.17
2018-08-31T03:26:23.282Z,36.70
2018-08-31T03:28:51.572Z,34.83
2018-08-31T03:31:19.675Z,34.53
2018-08-31T03:33:47.824Z,36.43
2018-08-31T03:36:15.848Z,34.60
2018-08-31T03:38:43.904Z,37.50
2018-08-31T03:41:12.132Z,37.87
2018-08-31T03:43:40.473Z,38.83
2018-08-31T03:46:08.813Z,39.43
2018-08-31T03:48:37.249Z,38.33
2018-08-31T03:51:05.666Z,43.57
2018-08-31T03:53:35.730Z,38.10
2018-08-31T03:56:04.060Z,35.53
2018-08-31T03:58:33.043Z,38.17
2018-08-31T04:01:01.391Z,36.10
2018-08-31T04:03:29.612Z,41.40
2018-08-31T04:05:57.604Z,40.53
2018-08-31T04:08:25.594Z,33.90
2018-08-31T04:10:53.585Z,39.70
2018-08-31T04:13:21.894Z,40.83
2018-08-31T04:15:49.865Z,37.23
2018-08-31T04:18:17.868Z,36.83
2018-08-31T04:20:45.939Z,42.03
2018-08-31T04:23:13.995Z,38.43
2018-08-31T04:25:42.245Z,33.03
2018-08-31T04:28:10.783Z,36.60
2018-08-31T04:30:40.485Z,35.10
2018-08-31T04:33:09.536Z,42.33
2018-08-31T04:35:38.036Z,36.50
2018-08-31T04:38:06.128Z,33.20
2018-08-31T04:40:34.718Z,30.10
2018-08-31T04:43:03.606Z,35.80
2018-08-31T04:45:32.093Z,48.37
2018-08-31T04:48:00.547Z,47.77
2018-08-31T04:50:30.099Z,44.53
2018-08-31T04:52:58.501Z,42.40
2018-08-31T04:55:28.501Z,40.70
2018-08-31T04:57:58.721Z,37.60
2018-08-31T05:00:26.801Z,37.67
2018-08-31T05:02:54.921Z,39.63
2018-08-31T05:05:23.865Z,41.40
2018-08-31T05:07:51.895Z,35.63
2018-08-31T05:10:20.034Z,41.53
2018-08-31T05:12:48.153Z,47.00
2018-08-31T05:15:17.313Z,39.93
2018-08-31T05:17:46.217Z,75.90
2018-08-31T05:20:14.726Z,53.27
2018-08-31T05:22:44.098Z,43.77
2018-08-31T05:25:18.433Z,46.30
2018-08-31T05:27:48.665Z,46.37
2018-08-31T05:30:16.991Z,45.60
2018-08-31T05:32:44.985Z,40.37
2018-08-31T05:35:15.483Z,54.77
2018-08-31T05:37:44.007Z,47.07
2018-08-31T05:42:45.850Z,47.47
2018-08-31T05:45:13.882Z,49.03
2018-08-31T05:50:30.188Z,64.97
2018-08-31T05:52:58.367Z,44.73
2018-08-31T05:55:26.336Z,47.03
2018-08-31T05:57:56.264Z,55.40
2018-08-31T06:00:24.325Z,59.63
2018-08-31T06:02:52.324Z,63.27
2018-08-31T06:05:30.065Z,52.23
2018-08-31T06:07:59.077Z,59.47
2018-08-31T06:10:29.468Z,50.87
2018-08-31T06:12:58.982Z,49.07
2018-08-31T06:15:28.586Z,51.93
2018-08-31T06:17:57.272Z,56.23
2018-08-31T06:20:27.979Z,52.53
2018-08-31T06:22:56.457Z,47.80
2018-08-31T06:25:24.540Z,58.30
2018-08-31T06:27:52.635Z,45.50
2018-08-31T06:30:20.850Z,50.77
2018-08-31T06:32:48.892Z,50.83
2018-08-31T06:35:16.953Z,49.83
2018-08-31T06:37:45.957Z,52.40
2018-08-31T06:40:14.548Z,50.43
2018-08-31T06:45:25.172Z,55.80
2018-08-31T06:48:00.350Z,52.53
2018-08-31T06:50:28.941Z,59.33
2018-08-31T06:52:57.337Z,62.30
2018-08-31T06:55:25.443Z,50.10
2018-08-31T06:57:56.189Z,60.83
2018-08-31T07:00:24.867Z,67.07
2018-08-31T07:02:52.897Z,54.63
2018-08-31T07:05:21.174Z,55.20
2018-08-31T07:07:49.615Z,46.50
2018-08-31T07:10:30.415Z,44.33
2018-08-31T07:12:58.971Z,54.57
2018-08-31T07:15:31.863Z,55.57
2018-08-31T07:18:01.554Z,52.30
2018-08-31T07:20:30.852Z,65.53
2018-08-31T07:23:02.550Z,53.93
2018-08-31T07:25:32.582Z,49.20
2018-08-31T07:28:00.884Z,49.00
2018-08-31T07:30:30.298Z,49.63
2018-08-31T07:32:58.946Z,50.40
2018-08-31T07:35:33.737Z,54.50
2018-08-31T07:38:11.150Z,45.57
2018-08-31T07:43:19.310Z,44.73
2018-08-31T07:46:00.240Z,51.27
2018-08-31T07:48:32.914Z,39.23
2018-08-31T07:51:02.136Z,43.20
2018-08-31T07:53:30.642Z,46.90
2018-08-31T07:56:03.521Z,46.20
2018-08-31T07:58:43.494Z,51.43
2018-08-31T08:01:12.088Z,41.87
2018-08-31T08:06:32.515Z,47.07
2018-08-31T08:11:38.762Z,45.97
2018-08-31T08:16:48.783Z,44.63
2018-08-31T08:19:17.091Z,50.00
2018-08-31T08:24:22.761Z,47.50
2018-08-31T08:26:50.943Z,50.23
2018-08-31T08:29:20.169Z,51.00
2018-08-31T08:31:48.792Z,46.63
2018-08-31T08:34:21.946Z,49.20
2018-08-31T08:36:50.451Z,46.00
2018-08-31T08:39:18.646Z,61.30
2018-08-31T08:41:46.993Z,52.23
2018-08-31T08:44:20.214Z,68.90
2018-08-31T08:46:52.098Z,51.60
2018-08-31T08:49:30.278Z,64.17
2018-08-31T08:52:00.414Z,55.77
2018-08-31T08:59:53.423Z,61.10
2018-08-31T09:02:23.040Z,72.87
2018-08-31T09:04:51.922Z,67.77
2018-08-31T09:07:20.486Z,68.23
2018-08-31T09:09:49.561Z,68.00
2018-08-31T09:12:18.005Z,64.13
2018-08-31T09:14:49.579Z,69.70
2018-08-31T09:17:18.888Z,62.73
2018-08-31T09:19:59.428Z,74.10
2018-08-31T09:25:11.224Z,82.57
2018-08-31T09:27:39.855Z,85.00
2018-08-31T09:30:17.781Z,94.47
2018-08-31T09:32:47.388Z,89.10
2018-08-31T09:35:17.158Z,90.00
2018-08-31T09:37:46.317Z,89.37
2018-08-31T09:40:23.642Z,85.83
2018-08-31T09:45:33.871Z,77.20
2018-08-31T09:50:40.979Z,86.80
2018-08-31T09:53:09.742Z,92.20
2018-08-31T09:55:38.339Z,80.07
2018-08-31T09:58:06.995Z,82.70
2018-08-31T10:00:45.949Z,85.07
2018-08-31T10:06:00.981Z,80.57
2018-08-31T10:13:44.717Z,91.73
2018-08-31T10:16:18.600Z,84.43
2018-08-31T10:18:46.863Z,83.77
2018-08-31T10:21:24.056Z,78.40
2018-08-31T10:23:52.639Z,79.33
2018-08-31T10:26:20.721Z,80.00
2018-08-31T10:31:43.682Z,75.47
2018-08-31T10:34:13.793Z,72.50
2018-08-31T10:36:42.785Z,72.30
2018-08-31T10:41:57.542Z,80.30
2018-08-31T10:44:25.856Z,87.53
2018-08-31T10:49:44.259Z,78.07
2018-08-31T10:52:20.978Z,78.00
2018-08-31T10:57:39.353Z,75.53
2018-08-31T11:00:12.251Z,75.30
2018-08-31T11:02:46.494Z,86.77
2018-08-31T11:07:58.492Z,91.47
2018-08-31T11:13:15.004Z,81.77
2018-08-31T11:15:44.243Z,72.97
2018-08-31T11:18:18.053Z,69.67
2018-08-31T11:23:33.248Z,35.50
2018-08-31T11:26:02.886Z,46.13
2018-08-31T11:31:26.738Z,41.70
2018-08-31T11:34:00.958Z,42.30
2018-08-31T11:36:43.900Z,53.47
2018-08-31T11:39:14.509Z,55.23
2018-08-31T11:41:42.890Z,52.93
2018-08-31T11:44:12.684Z,50.20
2018-08-31T11:46:41.314Z,46.83
2018-08-31T11:51:50.969Z,36.67
2018-08-31T11:54:19.192Z,39.70
2018-08-31T11:59:35.722Z,35.47
2018-08-31T12:02:08.043Z,40.67
2018-08-31T12:07:16.329Z,31.03
2018-08-31T12:09:44.645Z,33.23
2018-08-31T12:15:12.877Z,39.13
2018-08-31T12:17:41.695Z,35.83
2018-08-31T12:20:10.379Z,38.00
2018-08-31T12:22:43.782Z,36.23
2018-08-31T12:25:12.598Z,42.70
2018-08-31T12:30:22.278Z,40.33
2018-08-31T12:32:50.446Z,29.37
2018-08-31T12:35:18.937Z,33.70
2018-08-31T12:37:47.699Z,28.83
2018-08-31T12:42:57.896Z,39.20
2018-08-31T12:45:33.936Z,41.70
2018-08-31T12:48:03.541Z,43.30
2018-08-31T12:53:15.402Z,41.23
2018-08-31T12:55:45.033Z,39.40
2018-08-31T12:58:15.709Z,44.10
2018-08-31T13:00:56.867Z,48.53
2018-08-31T13:03:32.796Z,46.33
2018-08-31T13:08:44.098Z,45.33
2018-08-31T13:13:57.397Z,57.07
2018-08-31T13:16:25.892Z,57.53
2018-08-31T13:19:03.077Z,44.87
2018-08-31T13:21:39.030Z,29.80
2018-08-31T13:24:07.626Z,26.63
2018-08-31T13:29:30.775Z,27.30
2018-08-31T13:31:59.340Z,29.23
2018-08-31T13:34:32.815Z,31.83
2018-08-31T13:37:03.954Z,28.47
2018-08-31T13:39:37.618Z,27.37
2018-08-31T13:42:07.331Z,32.73
2018-08-31T13:44:35.861Z,33.20
2018-08-31T13:47:07.376Z,34.00
2018-08-31T13:49:36.929Z,37.50
2018-08-31T13:52:06.409Z,39.27
2018-08-31T13:54:39.691Z,35.60
2018-08-31T13:57:10.445Z,41.83
2018-08-31T13:59:42.808Z,40.40
2018-08-31T14:02:15.424Z,41.97
2018-08-31T14:04:43.662Z,43.80
2018-08-31T14:07:21.448Z,39.20
2018-08-31T14:09:50.314Z,34.87
2018-08-31T14:12:18.498Z,34.13
2018-08-31T14:14:50.809Z,25.97
2018-08-31T14:17:23.472Z,25.10
2018-08-31T14:19:52.802Z,30.60
2018-08-31T14:22:21.449Z,45.13
2018-08-31T14:24:49.896Z,32.67
2018-08-31T14:35:45.954Z,39.97
2018-08-31T14:38:14.414Z,47.20
2018-08-31T14:40:43.203Z,42.97
2018-08-31T14:43:11.950Z,47.97
2018-08-31T14:45:44.074Z,49.43
2018-08-31T14:48:12.332Z,42.43
2018-08-31T14:50:41.349Z,41.30
2018-08-31T14:56:01.577Z,44.33
2018-08-31T14:58:30.760Z,37.37
2018-08-31T15:00:59.408Z,28.90
2018-08-31T15:03:29.097Z,32.67
2018-08-31T15:06:01.828Z,31.93
2018-08-31T15:08:31.642Z,35.03
2018-08-31T15:13:35.165Z,35.23
2018-08-31T15:18:37.494Z,33.23
2018-08-31T15:21:05.917Z,33.73
2018-08-31T15:23:34.576Z,32.87
2018-08-31T15:26:04.535Z,34.97
2018-08-31T15:28:35.012Z,30.27
2018-08-31T15:31:05.060Z,38.43
2018-08-31T15:33:40.188Z,37.53
2018-08-31T15:36:11.106Z,34.83
2018-08-31T15:38:39.806Z,32.33
2018-08-31T15:41:16.698Z,37.17
2018-08-31T15:43:47.094Z,33.73
2018-08-31T15:46:15.274Z,33.87
2018-08-31T15:48:49.490Z,39.03
2018-08-31T15:51:31.051Z,38.70
2018-08-31T15:54:11.558Z,31.13
2018-08-31T15:56:46.077Z,37.90
2018-08-31T15:59:15.356Z,45.60
2018-08-31T16:01:49.138Z,36.23
2018-08-31T16:04:17.496Z,42.93
2018-08-31T16:06:46.302Z,39.67
2018-08-31T16:09:14.665Z,37.57
2018-08-31T16:14:15.663Z,49.70
2018-08-31T16:16:44.718Z,50.97
2018-08-31T16:19:17.818Z,48.87
2018-08-31T16:21:48.024Z,46.23
2018-08-31T16:24:16.142Z,44.83
2018-08-31T16:26:44.855Z,40.00
2018-08-31T16:29:16.924Z,46.23
2018-08-31T16:31:46.214Z,41.27
2018-08-31T16:36:58.282Z,47.47
2018-08-31T16:39:33.049Z,43.77
2018-08-31T16:42:02.004Z,47.73
2018-08-31T16:44:30.864Z,46.67
2018-08-31T16:46:59.665Z,43.07
2018-08-31T16:49:33.123Z,44.43
2018-08-31T16:52:03.537Z,55.07
2018-08-31T16:54:33.303Z,44.10
2018-08-31T16:57:02.962Z,49.93
2018-08-31T17:05:01.487Z,53.93
2018-08-31T17:10:05.059Z,53.00
2018-08-31T17:12:33.552Z,58.97
2018-08-31T17:15:10.804Z,57.07
2018-08-31T17:17:50.307Z,54.13
2018-08-31T17:22:54.676Z,63.27
2018-08-31T17:25:32.320Z,56.23
2018-08-31T17:28:06.503Z,61.80
2018-08-31T17:35:27.981Z,64.87
2018-08-31T17:40:38.533Z,63.93
2018-08-31T17:51:13.353Z,72.47
2018-08-31T17:53:42.715Z,82.07
2018-08-31T17:59:04.190Z,71.63
2018-08-31T18:07:02.750Z,73.60
2018-08-31T18:09:31.692Z,74.00
2018-08-31T18:14:41.067Z,77.13
2018-08-31T18:19:45.129Z,71.83
2018-08-31T18:22:14.049Z,81.67
2018-08-31T18:24:42.318Z,82.23
2018-08-31T18:29:43.197Z,64.77
2018-08-31T18:32:12.146Z,62.90
2018-08-31T18:34:40.540Z,69.53
2018-08-31T18:37:11.698Z,71.50
2018-08-31T18:39:40.177Z,68.23
2018-08-31T18:42:16.691Z,62.50
2018-08-31T18:44:50.842Z,65.03
2018-08-31T18:47:19.271Z,71.70
2018-08-31T18:49:49.075Z,73.87
2018-08-31T18:52:22.833Z,72.30
2018-08-31T18:54:51.385Z,70.30
2018-08-31T19:00:07.137Z,57.87
2018-08-31T19:02:36.661Z,61.27
2018-08-31T19:05:04.843Z,62.97
2018-08-31T19:07:34.079Z,63.23
2018-08-31T19:10:02.559Z,67.60
2018-08-31T19:12:31.942Z,75.43
2018-08-31T19:15:06.430Z,70.63
2018-08-31T19:17:34.812Z,87.07
2018-08-31T19:20:03.145Z,72.23
2018-08-31T19:22:32.422Z,77.90
2018-08-31T19:25:00.588Z,92.40
2018-08-31T19:27:33.316Z,93.43
2018-08-31T19:30:01.627Z,90.80
2018-08-31T19:37:45.529Z,95.00
2018-08-31T19:40:17.759Z,83.43
2018-08-31T19:45:34.050Z,89.03
2018-08-31T19:48:02.306Z,92.73
2018-08-31T19:50:35.535Z,96.20
2018-08-31T19:53:03.791Z,102.90
2018-08-31T19:55:32.796Z,91.70
2018-08-31T19:58:06.656Z,101.37
2018-08-31T20:00:34.924Z,93.43
2018-08-31T20:03:03.676Z,101.43
2018-08-31T20:05:32.187Z,92.40
2018-08-31T20:08:00.363Z,86.27
2018-08-31T20:10:28.379Z,89.80
2018-08-31T20:12:59.552Z,87.07
2018-08-31T20:15:32.407Z,86.73
2018-08-31T20:18:00.814Z,82.90
2018-08-31T20:20:29.502Z,71.20
2018-08-31T20:22:57.500Z,74.47
2018-08-31T20:25:25.782Z,62.50
2018-08-31T20:27:54.525Z,71.40
2018-08-31T20:30:26.846Z,67.90
2018-08-31T20:32:58.102Z,68.43
2018-08-31T20:35:26.896Z,58.63
2018-08-31T20:37:55.938Z,77.77
2018-08-31T20:40:24.191Z,69.77
2018-08-31T20:42:52.376Z,65.17
2018-08-31T20:45:21.372Z,73.47
2018-08-31T20:47:49.536Z,70.57
2018-08-31T20:50:18.911Z,61.10
2018-08-31T20:52:47.520Z,74.13
2018-08-31T20:55:17.863Z,69.53
2018-08-31T20:57:47.973Z,71.47
2018-08-31T21:00:16.102Z,78.97
2018-08-31T21:02:45.071Z,79.40
2018-08-31T21:05:13.262Z,66.50
2018-08-31T21:07:41.291Z,73.17
2018-08-31T21:10:09.676Z,68.67
2018-08-31T21:12:37.896Z,75.37
2018-08-31T21:15:06.195Z,79.67
2018-08-31T21:17:34.237Z,74.70
2018-08-31T21:20:02.611Z,78.20
2018-08-31T21:22:30.743Z,72.40
2018-08-31T21:24:58.817Z,70.93
2018-08-31T21:27:26.868Z,68.83
2018-08-31T21:29:54.930Z,66.93
2018-08-31T21:32:23.119Z,68.87
2018-08-31T21:34:51.245Z,78.93
2018-08-31T21:37:19.256Z,77.83
2018-08-31T21:39:47.349Z,80.43
2018-08-31T21:42:15.476Z,79.03
2018-08-31T21:44:43.892Z,77.37
2018-08-31T21:47:12.156Z,77.50
2018-08-31T21:49:40.281Z,90.90
2018-08-31T21:52:08.633Z,86.93
2018-08-31T21:54:37.307Z,78.33
2018-08-31T21:57:05.757Z,90.30
2018-08-31T21:59:33.777Z,91.53
2018-08-31T22:02:02.363Z,91.60
2018-08-31T22:04:30.422Z,90.00
2018-08-31T22:06:58.731Z,99.40
2018-08-31T22:09:27.003Z,96.07
2018-08-31T22:11:58.158Z,83.87
2018-08-31T22:14:26.799Z,86.77
2018-08-31T22:16:55.690Z,78.27
2018-08-31T22:19:23.858Z,84.97
2018-08-31T22:21:52.946Z,88.70
2018-08-31T22:24:21.509Z,92.07
2018-08-31T22:26:49.576Z,73.10
2018-08-31T22:29:17.635Z,72.13
2018-08-31T22:31:45.899Z,73.47
2018-08-31T22:34:14.010Z,68.80
2018-08-31T22:39:40.807Z,78.97
2018-08-31T22:42:09.169Z,73.23
2018-08-31T22:44:39.561Z,72.00
2018-08-31T22:47:07.507Z,74.93
2018-08-31T22:49:35.698Z,73.77
2018-08-31T22:52:03.805Z,68.43
2018-08-31T22:54:31.892Z,82.83
2018-08-31T22:56:59.845Z,72.67
2018-08-31T22:59:27.891Z,76.43
2018-08-31T23:01:55.793Z,73.73
2018-08-31T23:04:23.870Z,70.00
2018-08-31T23:06:51.938Z,74.03
2018-08-31T23:09:19.921Z,69.10
2018-08-31T23:11:48.903Z,81.17
2018-08-31T23:14:16.861Z,68.90
2018-08-31T23:16:45.083Z,78.67
2018-08-31T23:19:13.056Z,72.40
2018-08-31T23:21:41.114Z,83.63
2018-08-31T23:24:09.128Z,83.60
2018-08-31T23:26:37.187Z,85.80
2018-08-31T23:29:05.459Z,75.57
2018-08-31T23:31:34.118Z,75.97
2018-08-31T23:34:02.212Z,76.77
2018-08-31T23:36:30.238Z,83.97
2018-08-31T23:38:58.313Z,81.73
2018-08-31T23:41:26.428Z,70.17
2018-08-31T23:43:54.353Z,75.90
2018-08-31T23:46:22.351Z,89.80
2018-08-31T23:48:50.351Z,73.80
2018-08-31T23:51:18.326Z,83.27
2018-08-31T23:53:46.429Z,71.60
2018-08-31T23:56:14.414Z,78.53
2018-08-31T23:58:42.383Z,85.50
